Time;durP1;ratioP1;P1;durP2;ratioP2;P2;SDS_P1;SDS_P2;PMS_P1;PMS_P2;Temp;Humidity;BMP_temperature;BMP_pressure;BME280_temperature;BME280_humidity;BME280_pressure;Samples;Min_cycle;Max_cycle;Signal;HPM_P1;HPM_P2
2021/01/12 00:00:12;;;;;;;1.70;1.40;;;5.50;98.20;;;;;;6189174;23;20420;-78
2021/01/12 00:02:39;;;;;;;1.60;1.30;;;5.50;98.20;;;;;;6190731;23;20420;-80
2021/01/12 00:05:08;;;;;;;1.67;1.30;;;5.50;98.20;;;;;;6191067;23;20424;-77
2021/01/12 00:07:34;;;;;;;1.70;1.40;;;5.50;98.20;;;;;;6191036;23;20423;-78
2021/01/12 00:10:01;;;;;;;1.60;1.30;;;5.50;98.20;;;;;;6185754;23;20455;-79
2021/01/12 00:12:27;;;;;;;1.70;1.40;;;5.50;98.20;;;;;;6191381;23;20811;-78
2021/01/12 00:14:54;;;;;;;2.17;1.97;;;5.50;98.20;;;;;;6203768;23;20422;-78
2021/01/12 00:17:20;;;;;;;1.67;1.40;;;5.50;98.20;;;;;;6194613;23;20969;-78
2021/01/12 00:19:47;;;;;;;3.20;3.00;;;5.50;98.20;;;;;;6194154;23;20440;-78
2021/01/12 00:22:14;;;;;;;1.63;1.30;;;5.50;98.20;;;;;;6193913;23;20424;-78
2021/01/12 00:24:41;;;;;;;1.67;1.30;;;5.50;98.20;;;;;;6195158;23;20427;-78
2021/01/12 00:27:08;;;;;;;1.60;1.30;;;5.50;98.20;;;;;;6190002;23;20427;-78
2021/01/12 00:29:35;;;;;;;1.63;1.30;;;5.50;98.20;;;;;;6194270;23;20444;-78
2021/01/12 00:32:01;;;;;;;1.70;1.40;;;5.50;98.20;;;;;;6194185;23;20444;-78
2021/01/12 00:34:28;;;;;;;1.60;1.30;;;5.50;98.20;;;;;;6193103;23;20420;-78
2021/01/12 00:36:54;;;;;;;1.67;1.40;;;5.50;98.20;;;;;;6196077;23;20424;-78
2021/01/12 00:39:22;;;;;;;1.93;1.73;;;5.50;98.20;;;;;;6194378;23;20451;-78
2021/01/12 00:41:52;;;;;;;1.67;1.30;;;5.50;98.20;;;;;;6194284;23;20450;-77
2021/01/12 00:44:18;;;;;;;1.70;1.30;;;5.50;98.20;;;;;;6189937;23;20420;-78
2021/01/12 00:46:46;;;;;;;1.60;1.30;;;5.50;98.20;;;;;;6183525;23;20819;-78
2021/01/12 00:49:14;;;;;;;1.63;1.30;;;5.50;98.20;;;;;;6184299;23;20451;-79
2021/01/12 00:51:41;;;;;;;1.67;1.30;;;5.50;98.20;;;;;;6192413;23;20955;-77
2021/01/12 00:54:09;;;;;;;1.70;1.50;;;5.50;98.20;;;;;;6191196;23;20424;-78
2021/01/12 00:56:36;;;;;;;1.60;1.20;;;5.50;98.20;;;;;;6190218;23;20424;-79
2021/01/12 00:59:03;;;;;;;1.60;1.30;;;5.50;98.20;;;;;;6201550;23;20447;-78
2021/01/12 01:01:30;;;;;;;1.60;1.20;;;5.50;98.20;;;;;;6189121;23;20462;-76
2021/01/12 01:03:57;;;;;;;1.60;1.30;;;5.50;98.20;;;;;;6188948;23;20420;-78
2021/01/12 01:06:24;;;;;;;1.63;1.20;;;5.50;98.20;;;;;;6193898;23;20420;-78
2021/01/12 01:08:51;;;;;;;1.63;1.30;;;5.50;98.20;;;;;;6191929;23;20436;-77
2021/01/12 01:11:18;;;;;;;1.70;1.30;;;5.50;98.20;;;;;;6192086;23;21257;-79
2021/01/12 01:13:46;;;;;;;1.60;1.30;;;5.50;98.20;;;;;;6194831;23;21007;-77
2021/01/12 01:16:12;;;;;;;1.70;1.40;;;5.50;98.20;;;;;;6197507;23;20435;-78
2021/01/12 01:18:39;;;;;;;1.60;1.30;;;5.50;98.20;;;;;;6196727;23;20444;-77
2021/01/12 01:21:06;;;;;;;1.60;1.30;;;5.50;98.20;;;;;;6196012;23;20412;-77
2021/01/12 01:23:32;;;;;;;1.60;1.30;;;5.50;98.20;;;;;;6198541;23;20427;-77
2021/01/12 01:25:59;;;;;;;1.70;1.50;;;5.50;98.20;;;;;;6197347;23;20400;-78
2021/01/12 01:28:26;;;;;;;1.67;1.30;;;5.50;98.20;;;;;;6189059;23;20436;-78
2021/01/12 01:30:54;;;;;;;1.70;1.40;;;5.50;98.20;;;;;;6190439;23;20516;-78
2021/01/12 01:33:21;;;;;;;1.60;1.20;;;5.50;98.20;;;;;;6192878;23;20417;-78
2021/01/12 01:35:48;;;;;;;1.63;1.30;;;5.50;98.20;;;;;;6191102;23;20420;-78
2021/01/12 01:38:15;;;;;;;1.63;1.30;;;5.50;98.20;;;;;;6188586;23;20487;-79
2021/01/12 01:40:41;;;;;;;1.70;1.50;;;5.50;98.20;;;;;;6188595;23;20424;-77
2021/01/12 01:43:14;;;;;;;1.60;1.30;;;5.50;98.20;;;;;;6193389;23;20621;-78
2021/01/12 01:45:40;;;;;;;1.70;1.40;;;5.50;98.20;;;;;;6194279;23;20404;-77
2021/01/12 01:48:08;;;;;;;1.60;1.30;;;5.50;98.20;;;;;;6193728;23;20446;-77
2021/01/12 01:50:36;;;;;;;1.67;1.30;;;5.50;98.20;;;;;;6186979;23;20444;-79
2021/01/12 01:53:03;;;;;;;1.63;1.40;;;5.50;98.20;;;;;;6190427;23;20796;-79
2021/01/12 01:55:29;;;;;;;1.70;1.40;;;5.50;98.20;;;;;;6192070;23;20420;-79
2021/01/12 01:57:56;;;;;;;1.63;1.30;;;5.50;98.20;;;;;;6193790;23;20488;-77
2021/01/12 02:00:23;;;;;;;1.70;1.50;;;5.50;98.20;;;;;;6193541;23;20479;-78
2021/01/12 02:02:55;;;;;;;1.67;1.27;;;5.50;98.20;;;;;;6185162;23;20427;-77
2021/01/12 02:05:27;;;;;;;1.60;1.20;;;5.50;98.20;;;;;;6192122;23;20404;-78
2021/01/12 02:08:07;;;;;;;1.60;1.20;;;5.50;98.20;;;;;;6191335;23;21126;-78
2021/01/12 02:10:40;;;;;;;1.63;1.33;;;5.50;98.20;;;;;;6186723;23;20436;-77
2021/01/12 02:13:12;;;;;;;2.47;2.27;;;5.50;98.20;;;;;;6196363;23;20734;-78
2021/01/12 02:15:40;;;;;;;1.70;1.40;;;5.50;98.20;;;;;;6188764;23;20409;-81
2021/01/12 02:18:08;;;;;;;1.60;1.30;;;5.50;98.20;;;;;;6190708;23;20437;-77
2021/01/12 02:20:35;;;;;;;1.70;1.40;;;5.50;98.20;;;;;;6191495;23;20413;-77
2021/01/12 02:23:05;;;;;;;1.70;1.40;;;5.50;98.20;;;;;;6191804;23;20423;-78
2021/01/12 02:25:35;;;;;;;1.70;1.40;;;5.50;98.20;;;;;;6189260;23;20427;-78
2021/01/12 02:28:03;;;;;;;1.70;1.50;;;5.50;98.20;;;;;;6189193;23;20999;-79
2021/01/12 02:30:30;;;;;;;1.70;1.50;;;5.50;98.20;;;;;;6190450;23;20917;-79
2021/01/12 02:32:56;;;;;;;1.70;1.40;;;5.50;98.20;;;;;;6187740;23;20452;-78
2021/01/12 02:35:26;;;;;;;1.60;1.17;;;5.50;98.20;;;;;;6190656;23;20425;-79
2021/01/12 02:37:54;;;;;;;1.70;1.33;;;5.60;98.20;;;;;;6193612;23;20723;-78
2021/01/12 02:40:21;;;;;;;1.60;1.30;;;5.60;98.20;;;;;;6192282;23;20724;-79
2021/01/12 02:42:49;;;;;;;1.70;1.40;;;5.60;98.20;;;;;;6193352;23;20443;-78
2021/01/12 02:45:16;;;;;;;1.60;1.27;;;5.60;98.20;;;;;;6187437;23;20420;-78
2021/01/12 02:47:42;;;;;;;1.60;1.30;;;5.60;98.20;;;;;;6188383;23;20427;-78
2021/01/12 02:50:11;;;;;;;1.63;1.30;;;5.60;98.20;;;;;;6191733;23;20427;-78
2021/01/12 02:52:39;;;;;;;1.60;1.27;;;5.60;98.20;;;;;;6194745;23;20430;-78
2021/01/12 02:55:07;;;;;;;1.60;1.30;;;5.60;98.20;;;;;;6194380;23;20474;-79
2021/01/12 02:57:34;;;;;;;1.63;1.30;;;5.60;98.20;;;;;;6189402;23;20420;-78
2021/01/12 03:00:01;;;;;;;1.63;1.30;;;5.60;98.20;;;;;;6189027;23;20756;-78
2021/01/12 03:02:28;;;;;;;1.67;1.30;;;5.70;98.20;;;;;;6190996;23;20431;-78
2021/01/12 03:04:54;;;;;;;4.23;3.93;;;5.70;98.20;;;;;;6189048;23;20937;-80
2021/01/12 03:07:20;;;;;;;1.63;1.30;;;5.70;98.20;;;;;;6193401;23;20419;-80
2021/01/12 03:09:47;;;;;;;1.60;1.30;;;5.70;98.20;;;;;;6190434;23;20483;-77
2021/01/12 03:12:13;;;;;;;1.60;1.30;;;5.70;98.20;;;;;;6188588;23;20834;-78
2021/01/12 03:14:41;;;;;;;1.70;1.40;;;5.70;98.20;;;;;;6190992;23;20455;-80
2021/01/12 03:17:10;;;;;;;1.60;1.20;;;5.70;98.20;;;;;;6186483;23;20475;-76
2021/01/12 03:19:36;;;;;;;1.60;1.20;;;5.80;98.20;;;;;;6187079;23;20447;-78
2021/01/12 03:22:03;;;;;;;1.67;1.30;;;5.80;98.20;;;;;;6187550;23;20416;-79
2021/01/12 03:24:29;;;;;;;1.63;1.30;;;5.80;98.20;;;;;;6189116;23;20420;-77
2021/01/12 03:26:56;;;;;;;1.60;1.30;;;5.80;98.20;;;;;;6188332;23;20416;-78
2021/01/12 03:29:22;;;;;;;1.63;1.30;;;5.80;98.20;;;;;;6187242;23;20775;-78
2021/01/12 03:31:49;;;;;;;1.63;1.20;;;5.80;98.20;;;;;;6188389;23;20441;-80
2021/01/12 03:34:16;;;;;;;1.70;1.40;;;5.80;98.20;;;;;;6188350;23;20421;-78
2021/01/12 03:36:43;;;;;;;1.60;1.30;;;5.80;98.20;;;;;;6187965;23;20431;-79
2021/01/12 03:39:09;;;;;;;1.70;1.40;;;5.80;98.20;;;;;;6188539;23;20452;-78
2021/01/12 03:41:36;;;;;;;1.70;1.30;;;5.80;98.20;;;;;;6189464;23;20846;-79
2021/01/12 03:44:03;;;;;;;1.60;1.30;;;5.80;98.20;;;;;;6187125;23;20918;-81
2021/01/12 03:46:30;;;;;;;1.60;1.30;;;5.90;98.20;;;;;;6189487;23;20420;-79
2021/01/12 03:48:57;;;;;;;1.67;1.30;;;5.90;98.20;;;;;;6188242;23;20797;-79
2021/01/12 03:51:25;;;;;;;1.70;1.50;;;5.90;98.20;;;;;;6187320;23;20448;-81
2021/01/12 03:53:51;;;;;;;1.70;1.40;;;5.90;98.20;;;;;;6185444;23;20419;-79
2021/01/12 03:56:18;;;;;;;1.60;1.20;;;5.90;98.20;;;;;;6188194;23;20424;-78
2021/01/12 03:58:45;;;;;;;1.70;1.40;;;5.90;98.20;;;;;;6189077;23;20440;-79
2021/01/12 04:01:13;;;;;;;1.60;1.20;;;5.90;98.20;;;;;;6187121;23;20424;-79
2021/01/12 04:03:41;;;;;;;1.67;1.30;;;5.90;98.20;;;;;;6187192;23;20782;-80
2021/01/12 04:06:12;;;;;;;1.70;1.40;;;5.90;98.20;;;;;;6187414;23;20736;-80
2021/01/12 04:08:40;;;;;;;1.70;1.40;;;6.00;98.20;;;;;;6187419;23;20440;-78
2021/01/12 04:11:06;;;;;;;1.60;1.30;;;6.00;98.20;;;;;;6197535;23;20437;-79
2021/01/12 04:13:33;;;;;;;1.60;1.20;;;6.00;98.20;;;;;;6185358;23;20427;-80
2021/01/12 04:16:01;;;;;;;1.63;1.30;;;6.00;98.20;;;;;;6189965;23;20427;-78
2021/01/12 04:18:28;;;;;;;1.67;1.30;;;6.00;98.20;;;;;;6188614;23;20440;-78
2021/01/12 04:20:54;;;;;;;1.70;1.30;;;6.00;98.20;;;;;;6185634;23;20423;-79
2021/01/12 04:23:21;;;;;;;1.67;1.30;;;6.00;98.20;;;;;;6187515;23;20421;-78
2021/01/12 04:25:48;;;;;;;1.70;1.40;;;6.00;98.20;;;;;;6188165;23;20423;-79
2021/01/12 04:28:15;;;;;;;1.60;1.20;;;6.00;98.20;;;;;;6188274;23;20762;-78
2021/01/12 04:30:41;;;;;;;1.67;1.30;;;6.00;98.20;;;;;;6188819;23;20441;-78
2021/01/12 04:33:07;;;;;;;1.70;1.30;;;6.00;98.20;;;;;;6186782;23;20471;-79
2021/01/12 04:35:34;;;;;;;1.70;1.30;;;6.00;98.20;;;;;;6186658;23;20562;-79
2021/01/12 04:38:00;;;;;;;1.60;1.20;;;6.00;98.20;;;;;;6187509;23;20471;-79
2021/01/12 04:40:27;;;;;;;1.60;1.30;;;6.00;98.20;;;;;;6184808;23;20416;-79
2021/01/12 04:42:56;;;;;;;1.67;1.30;;;6.00;98.20;;;;;;6184492;23;20431;-79
2021/01/12 04:45:23;;;;;;;1.63;1.30;;;6.00;98.20;;;;;;6187240;23;20849;-79
2021/01/12 04:47:49;;;;;;;1.60;1.20;;;6.00;98.20;;;;;;6188084;23;20754;-79
2021/01/12 04:50:16;;;;;;;1.60;1.23;;;6.00;98.20;;;;;;6184257;23;20428;-79
2021/01/12 04:52:44;;;;;;;1.63;1.30;;;6.00;98.20;;;;;;6193622;23;20433;-80
2021/01/12 04:55:11;;;;;;;1.60;1.30;;;6.00;98.20;;;;;;6187213;23;20752;-79
2021/01/12 04:57:37;;;;;;;1.70;1.30;;;6.00;98.20;;;;;;6185129;23;20416;-78
2021/01/12 05:00:11;;;;;;;1.67;1.30;;;6.00;98.20;;;;;;6184663;23;20420;-79
2021/01/12 05:02:38;;;;;;;1.63;1.30;;;6.00;98.20;;;;;;6189907;23;20431;-77
2021/01/12 05:05:06;;;;;;;1.60;1.30;;;6.00;98.20;;;;;;6190298;23;20428;-79
2021/01/12 05:07:33;;;;;;;1.60;1.30;;;6.00;98.20;;;;;;6190805;23;20420;-79
2021/01/12 05:10:00;;;;;;;1.63;1.30;;;6.00;98.20;;;;;;6189486;23;20518;-79
2021/01/12 05:12:28;;;;;;;1.67;1.33;;;6.00;98.20;;;;;;6191050;23;20952;-78
2021/01/12 05:14:58;;;;;;;1.70;1.40;;;6.00;98.20;;;;;;6187089;23;20420;-78
2021/01/12 05:17:33;;;;;;;1.63;1.30;;;6.00;98.20;;;;;;6192047;23;20400;-78
2021/01/12 05:20:03;;;;;;;1.60;1.30;;;6.00;98.20;;;;;;6184935;23;20493;-78
2021/01/12 05:22:33;;;;;;;1.60;1.30;;;6.00;98.20;;;;;;6155911;23;20428;-78
2021/01/12 05:27:40;;;;;;;1.67;1.30;;;6.00;98.20;;;;;;6160394;23;20409;-78
2021/01/12 05:30:09;;;;;;;1.67;1.40;;;6.00;98.20;;;;;;6159852;23;20417;-78
2021/01/12 05:32:39;;;;;;;1.70;1.40;;;6.00;98.20;;;;;;6155831;23;20421;-79
2021/01/12 05:35:08;;;;;;;1.60;1.30;;;6.00;98.20;;;;;;6156806;23;20613;-78
2021/01/12 05:37:34;;;;;;;1.67;1.40;;;6.00;98.20;;;;;;6159063;23;20453;-79
2021/01/12 05:40:02;;;;;;;1.63;1.30;;;6.00;98.20;;;;;;6156513;23;20412;-78
2021/01/12 05:42:31;;;;;;;1.60;1.30;;;6.00;98.20;;;;;;6154169;23;20904;-79
2021/01/12 05:44:58;;;;;;;1.60;1.20;;;6.10;98.20;;;;;;6157100;23;20762;-79
2021/01/12 05:47:24;;;;;;;1.63;1.40;;;6.10;98.20;;;;;;6157585;23;20417;-76
2021/01/12 05:49:54;;;;;;;1.63;1.30;;;6.10;98.20;;;;;;6153037;23;20938;-78
2021/01/12 05:52:20;;;;;;;1.60;1.30;;;6.10;98.20;;;;;;6154177;23;20817;-77
2021/01/12 05:55:01;;;;;;;1.63;1.30;;;6.10;98.20;;;;;;6159406;23;20418;-76
2021/01/12 05:57:30;;;;;;;1.60;1.30;;;6.10;98.20;;;;;;6158690;23;20699;-78
2021/01/12 06:00:02;;;;;;;1.60;1.20;;;6.10;98.20;;;;;;6155809;23;20417;-77
2021/01/12 06:02:32;;;;;;;1.60;1.20;;;6.10;98.20;;;;;;6158852;23;20405;-77
2021/01/12 06:05:00;;;;;;;1.70;1.30;;;6.10;98.20;;;;;;6158620;23;20586;-78
2021/01/12 06:07:27;;;;;;;1.70;1.40;;;6.10;98.20;;;;;;6156379;23;20449;-77
2021/01/12 06:09:55;;;;;;;1.70;1.30;;;6.20;98.20;;;;;;6169995;23;20421;-76
2021/01/12 06:12:25;;;;;;;1.60;1.23;;;6.20;98.20;;;;;;6161253;23;20448;-77
2021/01/12 06:14:52;;;;;;;1.60;1.30;;;6.20;98.20;;;;;;6165567;23;20452;-76
2021/01/12 06:17:19;;;;;;;1.60;1.23;;;6.20;98.20;;;;;;6165778;23;20477;-77
2021/01/12 06:19:47;;;;;;;1.60;1.20;;;6.30;98.20;;;;;;6160384;23;20436;-76
2021/01/12 06:22:18;;;;;;;1.60;1.20;;;6.30;98.20;;;;;;6159892;23;20413;-76
2021/01/12 06:24:52;;;;;;;1.70;1.30;;;6.30;98.20;;;;;;6160274;23;20684;-79
2021/01/12 06:27:24;;;;;;;1.70;1.40;;;6.30;98.20;;;;;;6157407;23;20421;-74
2021/01/12 06:29:51;;;;;;;1.60;1.27;;;6.30;98.20;;;;;;6163981;23;20428;-74
2021/01/12 06:32:18;;;;;;;1.67;1.37;;;6.30;98.20;;;;;;6162862;23;20515;-76
2021/01/12 06:34:45;;;;;;;1.67;1.30;;;6.30;98.20;;;;;;6164464;23;20472;-74
2021/01/12 06:37:15;;;;;;;1.70;1.33;;;6.30;98.20;;;;;;6164661;23;20425;-78
2021/01/12 06:39:44;;;;;;;1.60;1.20;;;6.40;98.20;;;;;;6160582;23;20465;-77
2021/01/12 06:42:12;;;;;;;1.60;1.30;;;6.40;98.20;;;;;;6155180;23;20418;-78
2021/01/12 06:44:40;;;;;;;1.60;1.20;;;6.40;98.20;;;;;;6158595;23;20432;-78
2021/01/12 06:47:09;;;;;;;1.70;1.30;;;6.40;98.20;;;;;;6158970;23;20980;-76
2021/01/12 06:49:36;;;;;;;1.67;1.30;;;6.40;98.20;;;;;;6155058;23;20448;-77
2021/01/12 06:52:04;;;;;;;1.60;1.23;;;6.40;98.20;;;;;;6161504;23;20445;-77
2021/01/12 06:54:32;;;;;;;1.70;1.30;;;6.50;98.20;;;;;;6156686;23;20492;-77
2021/01/12 06:57:01;;;;;;;1.60;1.20;;;6.50;98.20;;;;;;6152408;23;20511;-77
2021/01/12 06:59:44;;;;;;;1.63;1.20;;;6.50;98.20;;;;;;6151660;23;20441;-78
2021/01/12 07:02:19;;;;;;;1.60;1.30;;;6.60;98.20;;;;;;6153765;23;20409;-77
2021/01/12 07:05:10;;;;;;;1.70;1.30;;;6.60;98.20;;;;;;6154296;23;20491;-76
2021/01/12 07:07:38;;;;;;;1.70;1.30;;;6.60;98.20;;;;;;6139917;23;20424;-76
2021/01/12 07:10:07;;;;;;;1.67;1.23;;;6.70;98.20;;;;;;6154863;23;20425;-77
2021/01/12 07:12:34;;;;;;;1.60;1.20;;;6.70;98.20;;;;;;6155700;23;20445;-78
2021/01/12 07:15:05;;;;;;;1.70;1.30;;;6.70;98.20;;;;;;6156656;23;20426;-77
2021/01/12 07:17:34;;;;;;;1.70;1.40;;;6.80;98.20;;;;;;6153769;23;20410;-76
2021/01/12 07:20:13;;;;;;;1.63;1.30;;;6.80;98.20;;;;;;6156344;23;20421;-77
2021/01/12 07:22:40;;;;;;;1.60;1.20;;;6.80;98.20;;;;;;6152577;23;20401;-76
2021/01/12 07:25:09;;;;;;;1.60;1.20;;;6.80;98.20;;;;;;6158085;23;20471;-76
2021/01/12 07:27:37;;;;;;;1.67;1.30;;;6.90;98.20;;;;;;6142413;23;20453;-75
2021/01/12 07:30:06;;;;;;;1.60;1.20;;;6.90;98.20;;;;;;6157589;23;20964;-76
2021/01/12 07:32:35;;;;;;;1.60;1.20;;;6.90;98.20;;;;;;6155892;23;20437;-75
2021/01/12 07:35:10;;;;;;;1.70;1.30;;;6.90;98.20;;;;;;6159606;23;20428;-76
2021/01/12 07:37:39;;;;;;;1.60;1.20;;;6.90;98.20;;;;;;6158829;23;20429;-77
2021/01/12 07:40:07;;;;;;;1.63;1.23;;;6.90;98.20;;;;;;6167165;23;20420;-76
2021/01/12 07:42:34;;;;;;;1.60;1.20;;;6.90;98.20;;;;;;6158888;23;20420;-76
2021/01/12 07:45:02;;;;;;;1.60;1.30;;;6.90;98.20;;;;;;6158905;23;20413;-76
2021/01/12 07:47:28;;;;;;;1.70;1.40;;;7.00;98.20;;;;;;6155785;23;20440;-77
2021/01/12 07:49:56;;;;;;;1.67;1.20;;;7.00;98.20;;;;;;6154634;23;20417;-76
2021/01/12 07:52:23;;;;;;;1.67;1.30;;;7.00;98.20;;;;;;6155584;23;20456;-78
2021/01/12 07:54:49;;;;;;;1.70;1.30;;;7.00;98.20;;;;;;6156114;23;20433;-77
2021/01/12 07:57:16;;;;;;;1.60;1.20;;;7.00;98.20;;;;;;6155699;23;20804;-77
2021/01/12 07:59:43;;;;;;;1.70;1.40;;;7.10;98.20;;;;;;6164710;23;20441;-75
2021/01/12 08:02:13;;;;;;;1.70;1.30;;;7.10;98.20;;;;;;6156259;23;20424;-76
2021/01/12 08:04:40;;;;;;;1.67;1.30;;;7.10;98.20;;;;;;6166883;23;20452;-77
2021/01/12 08:07:10;;;;;;;1.63;1.30;;;7.10;98.20;;;;;;6157292;23;20421;-76
2021/01/12 08:09:36;;;;;;;1.63;1.30;;;7.20;98.20;;;;;;6155503;23;20477;-77
2021/01/12 08:12:05;;;;;;;1.60;1.30;;;7.20;98.20;;;;;;6156411;23;20713;-77
2021/01/12 08:14:32;;;;;;;1.60;1.20;;;7.20;98.20;;;;;;6153877;23;20427;-76
2021/01/12 08:17:03;;;;;;;1.70;1.30;;;7.20;98.20;;;;;;6154238;23;20508;-78
2021/01/12 08:19:31;;;;;;;1.60;1.20;;;7.20;98.20;;;;;;6154989;23;20442;-75
2021/01/12 08:21:57;;;;;;;1.60;1.30;;;7.20;98.20;;;;;;6156530;23;20890;-75
2021/01/12 08:24:25;;;;;;;1.67;1.30;;;7.20;98.20;;;;;;6159421;23;20421;-76
2021/01/12 08:26:52;;;;;;;1.60;1.30;;;7.30;98.20;;;;;;6160931;23;20429;-76
2021/01/12 08:29:24;;;;;;;1.60;1.20;;;7.30;98.20;;;;;;6158878;23;20446;-76
2021/01/12 08:32:03;;;;;;;1.70;1.30;;;7.30;98.20;;;;;;6157610;23;20441;-74
2021/01/12 08:34:37;;;;;;;1.63;1.20;;;7.30;98.20;;;;;;6159334;23;20420;-74
2021/01/12 08:37:05;;;;;;;1.60;1.30;;;7.30;98.20;;;;;;6158489;23;20429;-75
2021/01/12 08:39:33;;;;;;;1.67;1.30;;;7.30;98.20;;;;;;6158692;23;20460;-78
2021/01/12 08:42:05;;;;;;;1.70;1.30;;;7.30;98.20;;;;;;6162347;23;20444;-76
2021/01/12 08:44:35;;;;;;;1.70;1.37;;;7.30;98.20;;;;;;6161307;23;20439;-75
2021/01/12 08:47:06;;;;;;;1.67;1.20;;;7.30;98.20;;;;;;6161433;23;20469;-77
2021/01/12 08:49:34;;;;;;;1.70;1.30;;;7.30;98.20;;;;;;6161727;23;20449;-77
2021/01/12 08:52:03;;;;;;;1.70;1.30;;;7.40;98.20;;;;;;6161134;23;20441;-76
2021/01/12 08:54:29;;;;;;;1.70;1.30;;;7.40;98.20;;;;;;6162892;23;20739;-75
2021/01/12 08:56:58;;;;;;;1.70;1.30;;;7.40;98.20;;;;;;6162465;23;20418;-75
2021/01/12 08:59:29;;;;;;;1.67;1.27;;;7.40;98.20;;;;;;6155405;23;20445;-76
2021/01/12 09:01:57;;;;;;;1.70;1.33;;;7.40;98.20;;;;;;6157924;23;20505;-74
2021/01/12 09:04:24;;;;;;;1.67;1.20;;;7.40;98.20;;;;;;6157402;23;20425;-75
2021/01/12 09:07:02;;;;;;;1.70;1.30;;;7.40;98.20;;;;;;6159959;23;20449;-77
2021/01/12 09:09:29;;;;;;;1.70;1.40;;;7.50;98.20;;;;;;6160531;23;20445;-78
2021/01/12 09:11:59;;;;;;;1.63;1.30;;;7.50;98.20;;;;;;6157671;23;20448;-76
2021/01/12 09:14:26;;;;;;;1.70;1.30;;;7.50;98.20;;;;;;6153600;23;20516;-77
2021/01/12 09:17:03;;;;;;;1.67;1.20;;;7.50;98.20;;;;;;6154804;23;20953;-76
2021/01/12 09:19:37;;;;;;;1.67;1.30;;;7.50;98.20;;;;;;6155131;23;20445;-76
2021/01/12 09:22:09;;;;;;;1.67;1.23;;;7.50;98.20;;;;;;6151171;23;20422;-77
2021/01/12 09:24:39;;;;;;;1.60;1.20;;;7.50;98.20;;;;;;6154193;23;20428;-75
2021/01/12 09:27:06;;;;;;;1.60;1.20;;;7.50;98.20;;;;;;6156367;23;20472;-76
2021/01/12 09:29:38;;;;;;;1.60;1.20;;;7.50;98.20;;;;;;6154601;23;20468;-75
2021/01/12 09:32:06;;;;;;;1.70;1.30;;;7.60;98.20;;;;;;6159724;23;20755;-74
2021/01/12 09:34:33;;;;;;;1.67;1.20;;;7.60;98.20;;;;;;6157191;23;20452;-75
2021/01/12 09:36:59;;;;;;;1.70;1.40;;;7.60;98.20;;;;;;6158080;23;20445;-75
2021/01/12 09:39:27;;;;;;;1.70;1.30;;;7.60;98.20;;;;;;6155526;23;20456;-77
2021/01/12 09:41:54;;;;;;;1.60;1.20;;;7.60;98.20;;;;;;6158393;23;20429;-74
2021/01/12 09:44:21;;;;;;;1.70;1.30;;;7.60;98.20;;;;;;6158962;23;20432;-75
2021/01/12 09:46:47;;;;;;;1.70;1.20;;;7.60;98.20;;;;;;6159587;23;20893;-78
2021/01/12 09:49:14;;;;;;;1.60;1.20;;;7.60;98.20;;;;;;6152689;23;20504;-78
2021/01/12 09:51:40;;;;;;;1.70;1.27;;;7.60;98.20;;;;;;6152227;23;20488;-77
2021/01/12 09:54:07;;;;;;;1.70;1.20;;;7.60;98.20;;;;;;6156149;23;20715;-76
2021/01/12 09:56:37;;;;;;;1.60;1.20;;;7.60;98.20;;;;;;6157308;23;20425;-75
2021/01/12 09:59:04;;;;;;;1.60;1.20;;;7.70;98.20;;;;;;6157538;23;20809;-78
2021/01/12 10:01:30;;;;;;;1.70;1.30;;;7.70;98.20;;;;;;6149014;23;20420;-78
2021/01/12 10:03:56;;;;;;;1.63;1.20;;;7.70;98.20;;;;;;6156646;23;20432;-77
2021/01/12 10:06:23;;;;;;;2.67;2.40;;;7.70;98.20;;;;;;6156521;23;20425;-73
2021/01/12 10:08:50;;;;;;;1.70;1.20;;;7.70;98.20;;;;;;6165947;23;20529;-74
2021/01/12 10:11:17;;;;;;;1.60;1.20;;;7.70;98.20;;;;;;6157785;23;20983;-74
2021/01/12 10:13:46;;;;;;;1.63;1.20;;;7.70;98.20;;;;;;6154429;23;20429;-78
2021/01/12 10:16:21;;;;;;;1.60;1.20;;;7.70;98.20;;;;;;6149974;23;20433;-82
2021/01/12 10:18:47;;;;;;;1.70;1.27;;;7.70;98.20;;;;;;6153565;23;20451;-76
2021/01/12 10:21:16;;;;;;;1.60;1.20;;;7.70;98.20;;;;;;6153851;23;20428;-78
2021/01/12 10:23:43;;;;;;;1.63;1.20;;;7.70;98.20;;;;;;6151764;23;21252;-78
2021/01/12 10:26:13;;;;;;;1.67;1.20;;;7.70;98.20;;;;;;6154889;23;20425;-76
2021/01/12 10:28:40;;;;;;;1.67;1.30;;;7.70;98.20;;;;;;6153396;23;20456;-76
2021/01/12 10:31:10;;;;;;;1.60;1.20;;;7.70;98.20;;;;;;6159725;23;20445;-75
2021/01/12 10:33:36;;;;;;;1.60;1.20;;;7.70;98.20;;;;;;6157372;23;20422;-74
2021/01/12 10:36:03;;;;;;;1.63;1.30;;;7.70;98.20;;;;;;6156353;23;20870;-74
2021/01/12 10:38:30;;;;;;;1.60;1.20;;;7.70;98.20;;;;;;6158692;23;20464;-74
2021/01/12 10:40:56;;;;;;;1.60;1.20;;;7.70;98.20;;;;;;6158037;23;20433;-77
2021/01/12 10:43:24;;;;;;;1.60;1.20;;;7.70;98.20;;;;;;6165877;23;20433;-76
2021/01/12 10:45:51;;;;;;;1.70;1.30;;;7.70;98.20;;;;;;6158320;23;20425;-75
2021/01/12 10:48:18;;;;;;;1.70;1.30;;;7.70;98.20;;;;;;6156758;23;20777;-75
2021/01/12 10:50:45;;;;;;;2.07;1.87;;;7.70;98.20;;;;;;6157704;23;20566;-75
2021/01/12 10:53:11;;;;;;;1.60;1.20;;;7.70;98.20;;;;;;6155719;23;20425;-75
2021/01/12 10:55:38;;;;;;;1.70;1.30;;;7.70;98.20;;;;;;6155223;23;20460;-77
2021/01/12 10:58:04;;;;;;;1.60;1.20;;;7.70;98.20;;;;;;6163957;23;20444;-74
2021/01/12 11:00:32;;;;;;;1.67;1.20;;;7.70;98.20;;;;;;6156987;23;20429;-75
2021/01/12 11:02:58;;;;;;;1.67;1.30;;;7.70;98.20;;;;;;6156312;23;20421;-75
2021/01/12 11:05:26;;;;;;;1.63;1.20;;;7.70;98.20;;;;;;6155341;23;20424;-74
2021/01/12 11:07:53;;;;;;;1.60;1.17;;;7.70;98.20;;;;;;6155067;23;20495;-73
2021/01/12 11:10:20;;;;;;;1.60;1.20;;;7.70;98.20;;;;;;6157819;23;20429;-75
2021/01/12 11:12:48;;;;;;;1.63;1.20;;;7.80;98.20;;;;;;6156091;23;20742;-76
2021/01/12 11:15:15;;;;;;;1.70;1.30;;;7.80;98.20;;;;;;6156204;23;20436;-78
2021/01/12 11:17:43;;;;;;;1.70;1.30;;;7.80;98.20;;;;;;6164494;23;20940;-76
2021/01/12 11:20:13;;;;;;;1.67;1.27;;;7.80;98.20;;;;;;6156319;23;20425;-76
2021/01/12 11:22:40;;;;;;;1.60;1.20;;;7.90;98.20;;;;;;6154201;23;20433;-76
2021/01/12 11:25:09;;;;;;;1.70;1.20;;;7.90;98.20;;;;;;6155413;23;20425;-75
2021/01/12 11:27:36;;;;;;;1.70;1.30;;;7.90;98.20;;;;;;6152680;23;20456;-76
2021/01/12 11:30:05;;;;;;;1.63;1.20;;;7.80;98.20;;;;;;6151120;23;20993;-75
2021/01/12 11:32:32;;;;;;;1.60;1.20;;;7.70;98.20;;;;;;6149488;23;20445;-75
2021/01/12 11:35:00;;;;;;;1.70;1.30;;;7.60;98.20;;;;;;6153425;23;20461;-74
2021/01/12 11:37:29;;;;;;;1.70;1.40;;;7.60;98.20;;;;;;6157124;23;20709;-74
2021/01/12 11:39:58;;;;;;;1.67;1.20;;;7.50;98.20;;;;;;6154607;23;20469;-78
2021/01/12 11:42:24;;;;;;;1.60;1.10;;;7.50;98.20;;;;;;6155280;23;20418;-76
2021/01/12 11:44:51;;;;;;;1.63;1.20;;;7.50;98.20;;;;;;6155241;23;20440;-74
2021/01/12 11:47:18;;;;;;;1.70;1.30;;;7.50;98.20;;;;;;6161764;23;20420;-75
2021/01/12 11:49:45;;;;;;;1.67;1.20;;;7.50;98.20;;;;;;6151364;23;20464;-75
2021/01/12 11:52:12;;;;;;;1.60;1.20;;;7.50;98.20;;;;;;6153102;23;20461;-77
2021/01/12 11:54:38;;;;;;;1.60;1.20;;;7.50;98.20;;;;;;6153055;23;20835;-76
2021/01/12 11:57:09;;;;;;;1.63;1.20;;;7.50;98.20;;;;;;6163643;23;20421;-76
2021/01/12 11:59:36;;;;;;;1.60;1.23;;;7.50;98.20;;;;;;6153721;23;20495;-75
2021/01/12 12:02:03;;;;;;;1.70;1.30;;;7.50;98.20;;;;;;6149126;23;20768;-75
2021/01/12 12:04:30;;;;;;;1.60;1.20;;;7.50;98.20;;;;;;6151219;23;20438;-75
2021/01/12 12:07:00;;;;;;;1.67;1.20;;;7.50;98.20;;;;;;6152467;23;20425;-77
2021/01/12 12:09:27;;;;;;;1.70;1.30;;;7.50;98.20;;;;;;6151791;23;20978;-76
2021/01/12 12:11:54;;;;;;;1.63;1.20;;;7.50;98.20;;;;;;6151873;23;20445;-77
2021/01/12 12:14:23;;;;;;;1.60;1.20;;;7.50;98.20;;;;;;6151687;23;20421;-74
2021/01/12 12:16:50;;;;;;;1.60;1.20;;;7.40;98.20;;;;;;6150287;23;20961;-76
2021/01/12 12:19:18;;;;;;;1.60;1.20;;;7.40;98.20;;;;;;6149064;23;20444;-77
2021/01/12 12:21:47;;;;;;;1.60;1.20;;;7.40;98.20;;;;;;6150465;23;20425;-76
2021/01/12 12:24:17;;;;;;;1.67;1.20;;;7.30;98.20;;;;;;6153129;23;20572;-76
2021/01/12 12:26:45;;;;;;;1.60;1.20;;;7.30;98.20;;;;;;6150874;23;20536;-74
2021/01/12 12:29:11;;;;;;;1.67;1.30;;;7.30;98.20;;;;;;6151645;23;20452;-73
2021/01/12 12:31:39;;;;;;;1.70;1.30;;;7.30;98.20;;;;;;6152961;23;20449;-76
2021/01/12 12:34:06;;;;;;;1.60;1.20;;;7.20;98.20;;;;;;6152163;23;20429;-74
2021/01/12 12:36:33;;;;;;;1.60;1.20;;;7.20;98.20;;;;;;6151607;23;20461;-76
2021/01/12 12:39:00;;;;;;;1.60;1.20;;;7.20;98.20;;;;;;6153282;23;20453;-75
2021/01/12 12:41:32;;;;;;;1.60;1.20;;;7.20;98.20;;;;;;6151578;23;20926;-75
2021/01/12 12:43:59;;;;;;;1.60;1.20;;;7.20;98.20;;;;;;6154038;23;20412;-75
2021/01/12 12:46:26;;;;;;;1.60;1.20;;;7.30;98.20;;;;;;6153366;23;20759;-76
2021/01/12 12:48:54;;;;;;;1.67;1.30;;;7.30;98.20;;;;;;6153620;23;20774;-76
2021/01/12 12:51:21;;;;;;;1.60;1.20;;;7.30;98.20;;;;;;6150750;23;20533;-75
2021/01/12 12:53:49;;;;;;;1.60;1.20;;;7.30;98.20;;;;;;6151854;23;20425;-74
2021/01/12 12:56:16;;;;;;;1.63;1.27;;;7.30;98.20;;;;;;6151494;23;20934;-76
2021/01/12 12:58:44;;;;;;;1.60;1.20;;;7.30;98.20;;;;;;6150555;23;20452;-75
2021/01/12 13:01:12;;;;;;;1.60;1.20;;;7.30;98.20;;;;;;6150272;23;20421;-76
2021/01/12 13:03:39;;;;;;;1.67;1.27;;;7.30;98.20;;;;;;6150139;23;20425;-74